Etusivu
METAR-TAF:

METAR-TAF

Lentoasemat :

Door County Cherryland Airport

Sturgeon Bay, Wisconsin, Yhdysvallat

Leveyspiiri: 44-51N, Pituuspiiri: 087-25W, korkeus merenpinnasta: 221 m

Tämänhetkinen sää

Tämä raportti tehtiin 14 minuuttia sitten, kello 17.56 UTC
Tuuli 7 kn pohjoisesta
Lämpötila 20°C
Kosteus 56%
Ilmanpaine 1009 hPa
Näkyvyys: 16.1 km
selkeää

METAR: KSUE 201756Z AUTO 01007KT 10SM CLR 20/11 A2979 RMK AO2 SLP086 T02000111 10206 20133 51006

Aika: 13:10 (18:10 UTC)


TAF: puuttuu

Säähavainnot ja -ennusteet yli 4000 lentoasemalta (METAR- ja TAF-raportit).

Käytössä olevat sääasemat on merkitty karttaan keltaisilla ja punaisilla pisteillä.

Aseta hiiri pisteen päälle nähdäksesi sääaseman nimen.

Klikkaa sitten nähdäksesi säähavainnot ja -ennusteet.

Kartan vaihtaminen: klikkaa mustalla rastilla varustettuja vihreitä pisteitä, niin voit zoomata sisään; viivalla varustettua vihreää pistettä, niin voit zoomata ulos tai vihreitä nuolia, niin pääset viereisille kartoille.


METAR-TAF: